Time;durP1;ratioP1;P1;durP2;ratioP2;P2;SDS_P1;SDS_P2;PMS_P1;PMS_P2;Temp;Humidity;BMP_temperature;BMP_pressure;BME280_temperature;BME280_humidity;BME280_pressure;Samples;Min_cycle;Max_cycle;Signal;HPM_P1;HPM_P2
2021/05/19 00:00:46;;;;;;;1.85;1.40;;;9.40;1.00;;;;;;5001685;28;20077;-76
2021/05/19 00:03:11;;;;;;;2.05;1.20;;;9.40;1.00;;;;;;4999389;28;20035;-75
2021/05/19 00:05:39;;;;;;;1.27;1.15;;;9.40;1.00;;;;;;4999188;28;20051;-74
2021/05/19 00:08:04;;;;;;;1.48;1.33;;;9.40;1.00;;;;;;5000775;28;20030;-76
2021/05/19 00:10:30;;;;;;;1.58;1.25;;;9.40;1.00;;;;;;5013493;28;20415;-76
2021/05/19 00:12:56;;;;;;;1.65;1.52;;;9.40;1.00;;;;;;4998418;28;20027;-75
2021/05/19 00:15:21;;;;;;;1.42;1.33;;;9.50;1.00;;;;;;4992396;28;20500;-74
2021/05/19 00:17:47;;;;;;;2.63;1.30;;;9.50;1.00;;;;;;5002121;28;20038;-76
2021/05/19 00:20:15;;;;;;;1.13;1.05;;;9.50;1.00;;;;;;4997688;28;20030;-74
2021/05/19 00:22:42;;;;;;;1.40;1.20;;;9.50;1.00;;;;;;5002613;28;20075;-75
2021/05/19 00:25:09;;;;;;;1.20;1.10;;;9.50;1.00;;;;;;4993645;28;20110;-74
2021/05/19 00:27:34;;;;;;;7.95;2.08;;;9.60;1.00;;;;;;5013805;28;20017;-75
2021/05/19 00:30:00;;;;;;;1.23;1.08;;;9.70;1.00;;;;;;5003136;28;20050;-74
2021/05/19 00:32:26;;;;;;;2.67;1.10;;;9.70;1.00;;;;;;5007068;28;20031;-75
2021/05/19 00:34:51;;;;;;;3.10;1.27;;;9.80;1.00;;;;;;5004170;28;20101;-75
2021/05/19 00:37:18;;;;;;;3.28;1.50;;;9.80;1.00;;;;;;5001262;28;20093;-75
2021/05/19 00:39:49;;;;;;;1.45;1.35;;;9.80;1.00;;;;;;4998960;28;20022;-74
2021/05/19 00:42:15;;;;;;;2.55;1.30;;;9.90;1.00;;;;;;5017954;28;20027;-75
2021/05/19 00:44:42;;;;;;;1.67;1.33;;;9.90;1.00;;;;;;4993605;28;20030;-76
2021/05/19 00:47:08;;;;;;;1.33;1.15;;;9.90;1.00;;;;;;4989787;28;20027;-74
2021/05/19 00:49:34;;;;;;;1.90;1.50;;;9.90;1.00;;;;;;4995087;28;20038;-76
2021/05/19 00:52:00;;;;;;;1.70;1.17;;;10.00;1.00;;;;;;4988049;28;20027;-75
2021/05/19 00:54:25;;;;;;;1.20;0.80;;;10.00;1.00;;;;;;4983405;28;20032;-75
2021/05/19 00:56:51;;;;;;;2.63;1.13;;;10.00;1.00;;;;;;4982530;28;20027;-75
2021/05/19 00:59:20;;;;;;;1.40;1.13;;;10.00;1.00;;;;;;4996254;28;20035;-74
2021/05/19 01:01:46;;;;;;;2.75;1.60;;;10.00;1.00;;;;;;4981102;28;20023;-76
2021/05/19 01:04:13;;;;;;;1.65;1.02;;;10.00;1.00;;;;;;4988471;28;20027;-75
2021/05/19 01:11:58;;;;;;;1.70;1.20;;;10.00;1.00;;;;;;4985415;28;20086;-75
2021/05/19 01:14:24;;;;;;;3.17;1.50;;;10.00;1.00;;;;;;5000712;28;20023;-76
2021/05/19 01:16:50;;;;;;;3.25;1.20;;;10.10;1.00;;;;;;4995096;28;20047;-75
2021/05/19 01:19:19;;;;;;;2.83;1.60;;;10.10;1.00;;;;;;5005043;28;20069;-74
2021/05/19 01:21:47;;;;;;;1.85;1.10;;;10.00;1.00;;;;;;5004736;28;20027;-75
2021/05/19 01:24:13;;;;;;;1.20;1.10;;;10.00;1.00;;;;;;5007299;28;20030;-75
2021/05/19 01:26:39;;;;;;;4.30;1.25;;;10.10;1.00;;;;;;5004508;28;20474;-75
2021/05/19 01:29:05;;;;;;;1.63;1.20;;;10.10;1.00;;;;;;4988905;28;20035;-77
2021/05/19 01:31:30;;;;;;;1.80;1.10;;;10.10;1.00;;;;;;4996466;28;20027;-75
2021/05/19 01:33:56;;;;;;;1.88;1.20;;;10.10;1.00;;;;;;5004713;28;20064;-75
2021/05/19 01:36:22;;;;;;;4.82;1.30;;;10.10;1.00;;;;;;4991484;28;20044;-76
2021/05/19 01:38:47;;;;;;;1.25;1.15;;;10.10;1.00;;;;;;4992780;28;20030;-76
2021/05/19 01:41:13;;;;;;;4.25;1.63;;;10.10;1.00;;;;;;4996471;28;20091;-76
2021/05/19 01:43:39;;;;;;;2.15;1.30;;;10.10;1.00;;;;;;4989814;28;20423;-76
2021/05/19 01:46:06;;;;;;;1.35;1.25;;;10.00;1.00;;;;;;4998300;28;20057;-74
2021/05/19 01:48:35;;;;;;;2.22;1.20;;;10.00;1.00;;;;;;4989985;28;20019;-74
2021/05/19 01:51:03;;;;;;;1.27;1.20;;;10.00;1.00;;;;;;4988655;28;20030;-76
2021/05/19 01:53:32;;;;;;;1.48;1.38;;;10.00;1.00;;;;;;5007695;28;20042;-76
2021/05/19 01:55:59;;;;;;;1.90;1.80;;;10.00;1.00;;;;;;4988097;28;20027;-75
2021/05/19 01:58:26;;;;;;;1.92;1.42;;;10.00;1.00;;;;;;4993129;28;20030;-73
2021/05/19 02:00:52;;;;;;;1.98;1.77;;;10.00;1.00;;;;;;4995095;28;20201;-76
2021/05/19 02:03:19;;;;;;;2.65;1.60;;;10.00;1.00;;;;;;4992381;28;20554;-75
2021/05/19 02:05:45;;;;;;;4.38;1.70;;;10.00;1.00;;;;;;4993955;28;20089;-74
2021/05/19 02:08:11;;;;;;;1.70;1.60;;;10.00;1.00;;;;;;4989228;28;20031;-75
2021/05/19 02:10:37;;;;;;;4.63;1.45;;;10.00;1.00;;;;;;4993662;28;20030;-75
2021/05/19 02:13:06;;;;;;;2.88;1.35;;;10.00;1.00;;;;;;4989048;28;20030;-75
2021/05/19 02:15:32;;;;;;;2.45;1.50;;;10.00;1.00;;;;;;4989274;28;20037;-74
2021/05/19 02:17:59;;;;;;;1.50;1.40;;;9.90;1.00;;;;;;4981701;28;20113;-75
2021/05/19 02:20:25;;;;;;;1.60;1.50;;;10.00;1.00;;;;;;4987846;28;20022;-75
2021/05/19 02:22:51;;;;;;;4.68;2.67;;;10.00;1.00;;;;;;4977541;28;20101;-75
2021/05/19 02:25:18;;;;;;;2.85;1.70;;;9.90;1.00;;;;;;4984275;28;20038;-75
2021/05/19 02:27:49;;;;;;;4.55;2.10;;;9.90;1.00;;;;;;4985363;28;20472;-75
2021/05/19 02:30:16;;;;;;;4.38;1.92;;;9.90;1.00;;;;;;4985590;28;20118;-75
2021/05/19 02:32:42;;;;;;;2.45;1.60;;;9.90;1.00;;;;;;4992924;28;20031;-75
2021/05/19 02:35:09;;;;;;;3.20;1.45;;;9.90;1.00;;;;;;4989992;28;20045;-75
2021/05/19 02:37:36;;;;;;;1.58;1.30;;;9.90;1.00;;;;;;5001267;28;20026;-75
2021/05/19 02:40:05;;;;;;;1.50;1.30;;;9.80;1.00;;;;;;4991118;28;20034;-75
2021/05/19 02:42:30;;;;;;;1.52;1.33;;;9.90;1.00;;;;;;4986402;28;20034;-75
2021/05/19 02:44:56;;;;;;;3.55;1.30;;;9.90;1.00;;;;;;4988511;28;20457;-75
2021/05/19 02:47:22;;;;;;;2.15;1.70;;;9.90;1.00;;;;;;4987339;28;20030;-74
2021/05/19 02:49:47;;;;;;;1.70;1.58;;;9.90;1.00;;;;;;4989745;28;20478;-76
2021/05/19 02:52:13;;;;;;;2.38;2.17;;;9.90;1.00;;;;;;4991199;28;20038;-76
2021/05/19 02:54:38;;;;;;;4.70;1.50;;;9.90;1.00;;;;;;4992778;28;20208;-75
2021/05/19 02:57:05;;;;;;;4.30;1.63;;;9.90;1.00;;;;;;4997896;28;20087;-75
2021/05/19 02:59:30;;;;;;;1.65;1.52;;;9.90;1.00;;;;;;4975550;28;20026;-74
2021/05/19 03:01:56;;;;;;;2.00;1.27;;;9.90;1.00;;;;;;4973765;28;20490;-74
2021/05/19 03:04:21;;;;;;;2.03;1.58;;;9.90;1.00;;;;;;4982117;28;20049;-76
2021/05/19 03:06:47;;;;;;;1.35;1.20;;;9.90;1.00;;;;;;4983263;28;20027;-75
2021/05/19 03:09:13;;;;;;;1.60;1.40;;;9.90;1.00;;;;;;4989974;28;20030;-75
2021/05/19 03:11:38;;;;;;;1.40;1.30;;;9.90;1.00;;;;;;4985538;28;20093;-75
2021/05/19 03:14:04;;;;;;;2.80;1.60;;;9.90;1.00;;;;;;4983152;28;20056;-74
2021/05/19 03:16:31;;;;;;;1.85;1.38;;;9.90;1.00;;;;;;4997371;28;20100;-75
2021/05/19 03:18:57;;;;;;;2.10;1.90;;;9.90;1.00;;;;;;4988417;28;20038;-75
2021/05/19 03:21:23;;;;;;;3.33;1.70;;;9.90;1.00;;;;;;4982573;28;20022;-75
2021/05/19 03:23:49;;;;;;;2.72;1.40;;;9.90;1.00;;;;;;4981335;28;20027;-75
2021/05/19 03:26:15;;;;;;;1.92;1.65;;;10.00;1.00;;;;;;4982204;28;20034;-75
2021/05/19 03:28:41;;;;;;;6.30;3.47;;;10.00;1.00;;;;;;4984149;28;20379;-75
2021/05/19 03:31:08;;;;;;;2.38;1.67;;;10.00;1.00;;;;;;4979097;28;20045;-75
2021/05/19 03:33:36;;;;;;;5.95;2.05;;;10.00;1.00;;;;;;4988513;28;20483;-75
2021/05/19 03:36:02;;;;;;;1.88;1.35;;;10.00;1.00;;;;;;4988526;28;20034;-74
2021/05/19 03:38:28;;;;;;;4.05;1.80;;;10.00;1.00;;;;;;4983838;28;20041;-74
2021/05/19 03:40:54;;;;;;;5.18;2.30;;;10.00;1.00;;;;;;4981152;28;20395;-74
2021/05/19 03:43:20;;;;;;;1.92;1.65;;;10.00;1.00;;;;;;4988008;28;20504;-74
2021/05/19 03:45:45;;;;;;;2.08;1.33;;;10.00;1.00;;;;;;4982708;28;20069;-75
2021/05/19 03:48:11;;;;;;;1.23;1.13;;;10.00;1.00;;;;;;4982776;28;20034;-74
2021/05/19 03:50:39;;;;;;;3.72;2.17;;;9.90;1.00;;;;;;4988734;28;20070;-75
2021/05/19 03:53:06;;;;;;;5.18;1.75;;;10.00;1.00;;;;;;4986254;28;20069;-75
2021/05/19 03:55:32;;;;;;;4.18;1.23;;;10.00;1.00;;;;;;4976914;28;20035;-74
2021/05/19 03:57:57;;;;;;;2.60;1.48;;;10.00;1.00;;;;;;4984310;28;20054;-75
2021/05/19 04:00:30;;;;;;;1.83;1.27;;;9.90;1.00;;;;;;4991440;28;20058;-75
2021/05/19 04:02:57;;;;;;;1.77;1.48;;;10.00;1.00;;;;;;4986256;28;20487;-75
2021/05/19 04:05:25;;;;;;;2.92;1.33;;;10.00;1.00;;;;;;4983974;28;20418;-75
2021/05/19 04:07:55;;;;;;;2.45;1.50;;;10.00;1.00;;;;;;4991769;28;20030;-75
2021/05/19 04:10:22;;;;;;;1.58;1.40;;;10.00;1.00;;;;;;4985844;28;21286;-73
2021/05/19 04:12:50;;;;;;;2.88;1.20;;;10.00;1.00;;;;;;4987317;28;20054;-74
2021/05/19 04:15:17;;;;;;;2.40;1.35;;;10.00;1.00;;;;;;4990605;28;20511;-74
2021/05/19 04:17:43;;;;;;;2.35;1.30;;;10.00;1.00;;;;;;4985637;28;20030;-75
2021/05/19 04:20:10;;;;;;;1.60;1.50;;;10.00;1.00;;;;;;4990437;28;20030;-75
2021/05/19 04:22:35;;;;;;;2.25;1.50;;;10.00;1.00;;;;;;4989912;28;20030;-75
2021/05/19 04:25:01;;;;;;;1.80;1.27;;;10.00;1.00;;;;;;4976844;28;20034;-75
2021/05/19 04:27:27;;;;;;;1.52;1.40;;;10.00;1.00;;;;;;4991878;28;20034;-75
2021/05/19 04:29:52;;;;;;;2.67;2.42;;;10.00;1.00;;;;;;4974871;28;20062;-75
2021/05/19 04:32:18;;;;;;;3.88;1.23;;;10.00;1.00;;;;;;4987520;28;20034;-75
2021/05/19 04:34:44;;;;;;;1.80;1.42;;;10.00;1.00;;;;;;4978791;28;20034;-74
2021/05/19 04:37:09;;;;;;;3.95;1.70;;;10.10;1.00;;;;;;4981336;28;20031;-75
2021/05/19 04:39:36;;;;;;;2.58;1.38;;;10.10;1.00;;;;;;4980198;28;20022;-76
2021/05/19 04:42:02;;;;;;;1.45;1.35;;;10.10;1.00;;;;;;4982684;28;20041;-76
2021/05/19 04:44:27;;;;;;;1.77;1.55;;;10.10;1.00;;;;;;4992496;28;20022;-75
2021/05/19 04:46:53;;;;;;;2.47;1.67;;;10.10;1.00;;;;;;5003016;28;20037;-74
2021/05/19 04:49:19;;;;;;;1.73;1.63;;;10.10;1.00;;;;;;5005394;28;20038;-75
2021/05/19 04:51:44;;;;;;;2.42;2.22;;;10.10;1.00;;;;;;5011919;28;20029;-74
2021/05/19 04:54:11;;;;;;;2.00;1.63;;;10.10;1.00;;;;;;5002249;28;20138;-77
2021/05/19 04:56:37;;;;;;;2.28;1.70;;;10.10;1.00;;;;;;4988604;28;20061;-75
2021/05/19 04:59:07;;;;;;;1.70;1.60;;;10.10;1.00;;;;;;4989885;28;20113;-75
2021/05/19 05:01:33;;;;;;;2.90;1.80;;;10.10;1.00;;;;;;4993610;28;20030;-76
2021/05/19 05:03:58;;;;;;;2.72;2.53;;;10.20;1.00;;;;;;4993829;28;20038;-74
2021/05/19 05:06:24;;;;;;;2.10;1.60;;;10.20;1.00;;;;;;4991214;28;20514;-75
2021/05/19 05:08:50;;;;;;;1.63;1.50;;;10.20;1.00;;;;;;4995816;28;20030;-75
2021/05/19 05:11:15;;;;;;;2.58;1.48;;;10.20;1.00;;;;;;4979243;28;20082;-76
2021/05/19 05:13:41;;;;;;;2.47;1.52;;;10.20;1.00;;;;;;4978283;28;20066;-76
2021/05/19 05:16:07;;;;;;;3.78;2.33;;;10.30;1.00;;;;;;4980320;28;20066;-76
2021/05/19 05:18:35;;;;;;;2.47;2.00;;;10.30;1.00;;;;;;4988789;28;20034;-76
2021/05/19 05:21:00;;;;;;;1.70;1.58;;;10.30;1.00;;;;;;4978087;28;20052;-76
2021/05/19 05:23:28;;;;;;;2.53;1.85;;;10.40;1.00;;;;;;4984364;28;20504;-75
2021/05/19 05:25:53;;;;;;;3.22;1.40;;;10.40;1.00;;;;;;5000203;28;20026;-75
2021/05/19 05:28:19;;;;;;;2.20;1.95;;;10.50;1.00;;;;;;4996666;28;20027;-74
2021/05/19 05:30:45;;;;;;;5.68;3.92;;;10.60;1.00;;;;;;4995909;28;20030;-75
2021/05/19 05:33:10;;;;;;;1.95;1.50;;;10.60;1.00;;;;;;4997461;28;20482;-75
2021/05/19 05:35:36;;;;;;;1.50;1.40;;;10.70;1.00;;;;;;4989107;28;20026;-75
2021/05/19 05:38:02;;;;;;;1.95;1.85;;;10.70;1.00;;;;;;4992048;28;20103;-75
2021/05/19 05:40:27;;;;;;;1.60;1.50;;;10.80;1.00;;;;;;4992009;28;20022;-76
2021/05/19 05:42:53;;;;;;;4.57;1.77;;;10.80;1.00;;;;;;4991605;28;20069;-77
2021/05/19 05:45:18;;;;;;;1.67;1.58;;;11.00;1.00;;;;;;4992647;28;20051;-75
2021/05/19 05:47:44;;;;;;;2.03;1.92;;;11.00;1.00;;;;;;4996274;28;20034;-76
2021/05/19 05:50:10;;;;;;;2.70;1.70;;;11.10;1.00;;;;;;4979858;28;20859;-75
2021/05/19 05:52:36;;;;;;;2.55;2.00;;;11.20;1.00;;;;;;4992656;28;20140;-76
2021/05/19 05:55:02;;;;;;;1.80;1.70;;;11.30;1.00;;;;;;4986379;28;20086;-76
2021/05/19 05:57:28;;;;;;;2.10;1.92;;;11.40;1.00;;;;;;4986736;28;20125;-75
2021/05/19 05:59:53;;;;;;;2.28;1.85;;;11.50;1.00;;;;;;4987078;28;20519;-76
2021/05/19 06:02:19;;;;;;;2.13;1.92;;;11.60;1.00;;;;;;4986471;28;20113;-76
2021/05/19 06:04:45;;;;;;;2.97;2.03;;;11.80;1.00;;;;;;4986978;28;20022;-77
2021/05/19 06:07:11;;;;;;;1.95;1.85;;;11.90;1.00;;;;;;4972728;28;558569;-77
2021/05/19 06:09:36;;;;;;;4.50;1.83;;;12.30;99.90;;;;;;4993178;28;20038;-75
2021/05/19 06:12:02;;;;;;;2.42;2.22;;;12.30;99.90;;;;;;4987540;28;20034;-75
2021/05/19 06:14:28;;;;;;;2.00;1.90;;;12.30;99.90;;;;;;4981264;28;20492;-77
2021/05/19 06:16:55;;;;;;;1.80;1.70;;;12.30;99.90;;;;;;4991268;28;20030;-77
2021/05/19 06:19:20;;;;;;;4.20;2.25;;;12.40;99.90;;;;;;4986171;28;20015;-76
2021/05/19 06:21:46;;;;;;;1.70;1.60;;;12.70;99.90;;;;;;4986287;28;20082;-76
2021/05/19 06:24:12;;;;;;;2.38;1.83;;;12.80;99.90;;;;;;4980695;28;20110;-75
2021/05/19 06:26:38;;;;;;;3.30;2.03;;;12.80;99.90;;;;;;4981551;28;20582;-76
2021/05/19 06:29:03;;;;;;;3.00;2.05;;;12.70;99.90;;;;;;4986486;28;20513;-76
2021/05/19 06:31:29;;;;;;;2.88;2.67;;;13.00;99.90;;;;;;4987244;28;20035;-76
2021/05/19 06:33:55;;;;;;;2.85;2.10;;;12.90;99.90;;;;;;4981404;28;20054;-76
2021/05/19 06:36:20;;;;;;;4.13;2.10;;;12.80;99.90;;;;;;5002491;28;20034;-77
2021/05/19 06:38:46;;;;;;;2.05;1.67;;;12.80;99.90;;;;;;4981455;28;20030;-76
2021/05/19 06:41:12;;;;;;;2.15;1.45;;;13.00;99.90;;;;;;4995146;28;20046;-78
2021/05/19 06:43:37;;;;;;;2.15;2.05;;;13.30;99.90;;;;;;4984091;28;20023;-75
2021/05/19 06:46:03;;;;;;;1.88;1.63;;;13.40;99.90;;;;;;4986113;28;20027;-76
2021/05/19 06:48:29;;;;;;;5.93;1.95;;;13.60;99.90;;;;;;4995148;28;20046;-76
2021/05/19 06:50:54;;;;;;;2.08;1.63;;;13.90;99.90;;;;;;4986865;28;20030;-76
2021/05/19 06:53:20;;;;;;;1.80;1.70;;;13.90;99.90;;;;;;4985288;28;20034;-77
2021/05/19 06:55:50;;;;;;;2.72;1.70;;;14.80;99.90;;;;;;4987074;28;20066;-76
2021/05/19 06:58:16;;;;;;;4.72;2.28;;;14.50;99.90;;;;;;4979996;28;20034;-77
2021/05/19 07:00:42;;;;;;;3.17;1.95;;;14.20;99.90;;;;;;4984074;28;21815;-76
2021/05/19 07:03:07;;;;;;;2.25;1.90;;;14.00;99.90;;;;;;5006168;28;20050;-75
2021/05/19 07:05:33;;;;;;;3.00;1.70;;;13.90;99.90;;;;;;5010550;28;20401;-76
2021/05/19 07:07:59;;;;;;;2.17;1.98;;;14.00;99.90;;;;;;5002637;28;20380;-76
2021/05/19 07:10:24;;;;;;;3.30;1.55;;;14.10;99.90;;;;;;4995393;28;20022;-76
2021/05/19 07:12:51;;;;;;;2.25;2.05;;;13.70;99.90;;;;;;4989750;28;20023;-77
2021/05/19 07:15:18;;;;;;;2.00;1.90;;;13.70;99.90;;;;;;4984463;28;20058;-76
2021/05/19 07:17:43;;;;;;;1.92;1.77;;;13.80;99.90;;;;;;4991533;28;20418;-76
2021/05/19 07:20:11;;;;;;;2.17;1.60;;;14.20;99.90;;;;;;4986988;28;20033;-76
2021/05/19 07:22:38;;;;;;;2.50;1.60;;;15.00;99.90;;;;;;4992951;28;20023;-76
2021/05/19 07:25:04;;;;;;;3.22;1.85;;;15.50;99.90;;;;;;4993271;28;20045;-75
2021/05/19 07:27:30;;;;;;;1.65;1.52;;;15.30;99.90;;;;;;4995349;28;20106;-75
2021/05/19 07:29:56;;;;;;;3.35;2.30;;;15.50;99.90;;;;;;4999340;28;20023;-75
2021/05/19 07:32:22;;;;;;;3.50;2.17;;;15.30;99.90;;;;;;5000110;28;20017;-75
2021/05/19 07:34:48;;;;;;;3.83;2.38;;;14.90;99.90;;;;;;5012253;28;20075;-75
2021/05/19 07:37:13;;;;;;;6.78;3.47;;;14.30;99.90;;;;;;5000230;28;20094;-76
2021/05/19 07:39:39;;;;;;;2.78;2.00;;;13.30;99.90;;;;;;5004476;28;20003;-76
2021/05/19 07:42:05;;;;;;;3.03;1.75;;;12.70;99.90;;;;;;5006342;28;20062;-75
2021/05/19 07:44:31;;;;;;;2.25;1.80;;;12.40;99.90;;;;;;5004159;28;20086;-74
2021/05/19 07:46:58;;;;;;;2.45;2.25;;;12.10;1.00;;;;;;4992521;28;20505;-75
2021/05/19 07:49:24;;;;;;;2.60;2.17;;;11.90;1.00;;;;;;5010527;28;20041;-75
2021/05/19 07:51:49;;;;;;;2.53;2.33;;;11.90;1.00;;;;;;5008816;28;20034;-74
2021/05/19 07:54:24;;;;;;;2.72;1.83;;;11.90;1.00;;;;;;4998983;28;20046;-74
2021/05/19 07:57:02;;;;;;;3.95;2.83;;;11.90;1.00;;;;;;4998044;28;20039;-75
2021/05/19 07:59:30;;;;;;;3.33;3.00;;;11.90;1.00;;;;;;4993499;28;20031;-75
2021/05/19 08:02:06;;;;;;;6.80;2.60;;;12.00;1.00;;;;;;4991702;28;20023;-76
2021/05/19 08:04:33;;;;;;;5.82;3.03;;;12.10;1.00;;;;;;4989161;28;20027;-76
2021/05/19 08:06:59;;;;;;;4.13;2.20;;;12.30;1.00;;;;;;4983147;28;20022;-75
2021/05/19 08:09:25;;;;;;;3.88;2.30;;;12.50;1.00;;;;;;4991932;28;20101;-74
2021/05/19 08:11:51;;;;;;;3.25;2.72;;;12.80;1.00;;;;;;4984740;28;20061;-76
2021/05/19 08:14:17;;;;;;;2.72;2.05;;;13.10;1.00;;;;;;4980500;28;20058;-75
2021/05/19 08:16:43;;;;;;;2.10;1.90;;;13.40;1.00;;;;;;4984660;28;20121;-75
2021/05/19 08:19:08;;;;;;;2.83;2.35;;;13.50;1.00;;;;;;5007678;28;20042;-75
2021/05/19 08:21:35;;;;;;;3.17;2.38;;;13.60;1.00;;;;;;5013848;28;20161;-75
2021/05/19 08:24:00;;;;;;;3.05;2.03;;;13.50;99.90;;;;;;5006029;28;20087;-74
2021/05/19 08:26:26;;;;;;;2.33;2.05;;;13.40;1.00;;;;;;5020537;28;20041;-75
2021/05/19 08:28:52;;;;;;;3.25;1.80;;;13.30;1.00;;;;;;4985764;28;20137;-75
2021/05/19 08:31:19;;;;;;;4.03;2.63;;;13.20;99.90;;;;;;4996802;28;20063;-76
2021/05/19 08:33:46;;;;;;;3.33;2.30;;;13.40;1.00;;;;;;5000896;28;20030;-75
2021/05/19 08:36:12;;;;;;;2.13;1.48;;;13.60;1.00;;;;;;4993638;28;20380;-75
2021/05/19 08:38:39;;;;;;;2.92;2.72;;;13.80;99.90;;;;;;4986589;28;20027;-76
2021/05/19 08:41:08;;;;;;;3.97;2.35;;;13.80;99.90;;;;;;4983708;28;20102;-75
2021/05/19 08:43:34;;;;;;;5.05;1.90;;;13.70;99.90;;;;;;4988753;28;20053;-76
2021/05/19 08:46:03;;;;;;;4.13;2.58;;;13.60;99.90;;;;;;4983667;28;20487;-75
2021/05/19 08:48:31;;;;;;;2.40;2.20;;;13.70;99.90;;;;;;4986058;28;20042;-76
2021/05/19 08:50:57;;;;;;;2.85;2.05;;;13.70;99.90;;;;;;4990897;28;20081;-75
2021/05/19 08:53:26;;;;;;;2.80;1.85;;;13.80;99.90;;;;;;4990629;28;20502;-75
2021/05/19 08:55:51;;;;;;;2.65;1.63;;;13.90;99.90;;;;;;5010170;28;20081;-75
2021/05/19 08:58:17;;;;;;;2.03;1.80;;;13.90;99.90;;;;;;4995551;28;20030;-75
2021/05/19 09:00:42;;;;;;;6.20;1.67;;;14.10;99.90;;;;;;4994836;28;20031;-76
2021/05/19 09:03:15;;;;;;;1.88;1.58;;;13.80;99.90;;;;;;4993791;28;20034;-76
2021/05/19 09:05:43;;;;;;;3.45;1.70;;;13.80;99.90;;;;;;4990446;28;20046;-76
2021/05/19 09:08:17;;;;;;;2.65;2.00;;;14.00;99.90;;;;;;4990471;28;20031;-75
2021/05/19 09:10:56;;;;;;;3.33;1.30;;;14.10;99.90;;;;;;4996151;28;20029;-75
2021/05/19 09:13:36;;;;;;;3.33;1.95;;;14.00;99.90;;;;;;4990002;28;20062;-76
2021/05/19 09:16:05;;;;;;;2.37;1.70;;;14.10;99.90;;;;;;4979199;28;20033;-75
2021/05/19 09:18:51;;;;;;;3.38;1.88;;;14.50;99.90;;;;;;4989767;28;20089;-76
2021/05/19 09:21:38;;;;;;;2.90;1.40;;;14.40;99.90;;;;;;4989665;28;20087;-76
2021/05/19 09:24:34;;;;;;;3.83;1.30;;;14.20;99.90;;;;;;4988462;28;20459;-75
2021/05/19 09:27:02;;;;;;;1.48;1.15;;;14.50;99.90;;;;;;4978005;28;20034;-75
2021/05/19 09:29:31;;;;;;;1.67;1.20;;;14.50;1.00;;;;;;4983338;28;20026;-76
2021/05/19 09:31:58;;;;;;;2.88;1.40;;;15.00;83.00;;;;;;4981959;28;20026;-76
2021/05/19 09:34:45;;;;;;;4.72;1.40;;;15.30;1.00;;;;;;4987650;28;20030;-75
2021/05/19 09:37:25;;;;;;;2.08;1.40;;;15.40;99.90;;;;;;4990529;28;20085;-76
2021/05/19 09:39:58;;;;;;;7.60;1.83;;;15.10;99.90;;;;;;4989257;28;20073;-75
2021/05/19 09:42:41;;;;;;;2.10;1.38;;;14.90;99.90;;;;;;4991280;28;20027;-76
2021/05/19 09:45:38;;;;;;;3.17;1.00;;;15.10;99.90;;;;;;5001669;28;20030;-76
2021/05/19 09:48:04;;;;;;;2.22;1.20;;;15.00;99.90;;;;;;5004903;28;20505;-74
2021/05/19 09:50:35;;;;;;;1.45;0.80;;;15.20;99.90;;;;;;4986319;28;20027;-77
2021/05/19 09:53:07;;;;;;;1.75;0.80;;;15.20;99.90;;;;;;4986836;28;20038;-76
2021/05/19 09:55:34;;;;;;;2.10;1.25;;;15.10;15.80;;;;;;4993573;28;20511;-76
2021/05/19 09:58:00;;;;;;;2.05;1.30;;;15.60;99.90;;;;;;4985399;28;20108;-75
2021/05/19 10:00:28;;;;;;;2.63;0.90;;;15.90;99.90;;;;;;4992684;28;20549;-75
2021/05/19 10:02:55;;;;;;;2.63;0.80;;;15.80;1.00;;;;;;4996937;28;20027;-78
2021/05/19 10:05:25;;;;;;;2.13;0.57;;;15.60;1.00;;;;;;4984638;28;20117;-75
2021/05/19 10:07:55;;;;;;;1.67;0.63;;;15.60;1.00;;;;;;4999956;28;20045;-74
2021/05/19 10:10:22;;;;;;;1.60;0.67;;;15.30;1.00;;;;;;4994591;28;20030;-74
2021/05/19 10:12:48;;;;;;;0.88;0.57;;;15.70;1.00;;;;;;4991818;28;20037;-75
2021/05/19 10:15:25;;;;;;;1.02;0.63;;;15.10;99.90;;;;;;5000788;28;20022;-76
2021/05/19 10:18:20;;;;;;;0.90;0.52;;;15.40;57.20;;;;;;4995418;28;20058;-75
2021/05/19 10:20:52;;;;;;;2.47;0.60;;;15.50;82.20;;;;;;4979886;28;20038;-75
2021/05/19 10:23:36;;;;;;;0.80;0.80;;;15.60;52.30;;;;;;4986792;28;20042;-75
2021/05/19 10:26:13;;;;;;;1.38;1.13;;;16.20;99.90;;;;;;4984925;28;20034;-75
2021/05/19 10:28:46;;;;;;;0.57;0.43;;;15.90;1.00;;;;;;4990325;28;20430;-77
2021/05/19 10:31:24;;;;;;;1.27;0.43;;;15.60;1.00;;;;;;4992883;28;20495;-76
2021/05/19 10:33:50;;;;;;;0.60;0.60;;;15.80;1.00;;;;;;4993471;28;20485;-76
2021/05/19 10:36:25;;;;;;;3.05;0.70;;;16.10;99.90;;;;;;4992469;28;20034;-77
2021/05/19 10:39:09;;;;;;;0.70;0.60;;;16.50;1.00;;;;;;4987540;28;20019;-76
2021/05/19 10:41:44;;;;;;;1.52;0.75;;;17.00;1.00;;;;;;4987949;28;20105;-76
2021/05/19 10:44:15;;;;;;;1.75;0.60;;;16.50;1.00;;;;;;4987095;28;20388;-75
2021/05/19 10:47:09;;;;;;;1.20;0.70;;;16.00;1.00;;;;;;4987013;28;20073;-76
2021/05/19 10:52:45;;;;;;;1.90;0.60;;;15.40;1.00;;;;;;4991402;28;20054;-76
2021/05/19 10:58:01;;;;;;;1.02;0.88;;;15.60;1.00;;;;;;4998375;28;20062;-75
2021/05/19 11:00:28;;;;;;;1.13;0.50;;;15.40;1.00;;;;;;4998620;28;20497;-75
2021/05/19 11:02:57;;;;;;;1.58;0.60;;;15.40;1.00;;;;;;5002158;28;20045;-77
2021/05/19 11:05:29;;;;;;;0.95;0.52;;;15.90;1.00;;;;;;5005049;28;20026;-75
2021/05/19 11:08:17;;;;;;;2.67;0.68;;;15.60;1.00;;;;;;5010948;28;20046;-77
2021/05/19 11:10:53;;;;;;;1.88;0.75;;;15.40;1.00;;;;;;4995442;28;20102;-77
2021/05/19 11:13:23;;;;;;;0.70;0.60;;;15.80;1.00;;;;;;4991429;28;20019;-77
2021/05/19 11:20:58;;;;;;;1.15;0.68;;;15.60;1.00;;;;;;4994069;28;20090;-78
2021/05/19 11:23:25;;;;;;;2.80;0.83;;;15.50;1.00;;;;;;4983272;28;20066;-78
2021/05/19 11:26:06;;;;;;;1.55;0.70;;;15.80;1.00;;;;;;5008707;28;20026;-76
2021/05/19 11:28:32;;;;;;;2.67;1.38;;;15.60;1.00;;;;;;4999449;28;20041;-78
2021/05/19 11:31:32;;;;;;;2.30;0.80;;;16.00;1.00;;;;;;4991805;28;20109;-77
2021/05/19 11:34:03;;;;;;;2.70;0.77;;;16.10;1.00;;;;;;4976789;28;20050;-77
2021/05/19 11:36:35;;;;;;;1.17;1.08;;;16.00;1.00;;;;;;5009219;28;20038;-79
2021/05/19 11:39:28;;;;;;;0.85;0.43;;;16.60;1.00;;;;;;4988164;28;20492;-79
2021/05/19 11:42:08;;;;;;;1.45;0.77;;;16.90;1.00;;;;;;4994219;28;20105;-78
2021/05/19 11:44:42;;;;;;;4.10;0.60;;;17.00;1.00;;;;;;4993977;28;20026;-78
2021/05/19 11:47:09;;;;;;;1.38;0.70;;;17.00;1.00;;;;;;4982712;28;20118;-77
2021/05/19 11:49:35;;;;;;;1.98;0.73;;;16.70;1.00;;;;;;4997485;28;20074;-75
2021/05/19 11:52:01;;;;;;;1.02;0.60;;;16.50;1.00;;;;;;5017023;28;20045;-76
2021/05/19 11:54:26;;;;;;;2.80;0.73;;;16.50;1.00;;;;;;5015724;28;20034;-75
2021/05/19 11:56:55;;;;;;;2.20;0.60;;;16.70;1.00;;;;;;4998247;28;20018;-75
2021/05/19 11:59:25;;;;;;;1.85;0.85;;;16.70;1.00;;;;;;5010191;28;20038;-76
2021/05/19 12:02:04;;;;;;;2.25;1.00;;;16.50;1.00;;;;;;5007537;28;20022;-77
2021/05/19 12:04:32;;;;;;;2.80;1.10;;;16.60;1.00;;;;;;4997766;28;20050;-77
2021/05/19 12:07:03;;;;;;;3.35;0.73;;;16.40;1.00;;;;;;4999321;28;20027;-77
2021/05/19 12:09:29;;;;;;;1.38;0.52;;;16.60;1.00;;;;;;5001280;28;20053;-77
2021/05/19 12:12:07;;;;;;;1.45;0.70;;;16.70;1.00;;;;;;4989752;28;20151;-78
2021/05/19 12:14:33;;;;;;;0.65;0.55;;;17.10;1.00;;;;;;5006913;28;20026;-78
2021/05/19 12:17:02;;;;;;;2.00;0.55;;;17.00;1.00;;;;;;5003500;28;20042;-78
2021/05/19 12:19:33;;;;;;;2.58;0.60;;;16.80;1.00;;;;;;5002869;28;20042;-78
2021/05/19 12:22:06;;;;;;;2.00;0.82;;;16.90;1.00;;;;;;5002472;28;20030;-76
2021/05/19 12:24:36;;;;;;;0.55;0.47;;;17.00;1.00;;;;;;5011621;28;20092;-78
2021/05/19 12:27:03;;;;;;;2.10;1.00;;;17.10;1.00;;;;;;4998064;28;20022;-79
2021/05/19 12:29:33;;;;;;;5.20;1.83;;;17.20;1.00;;;;;;4989668;28;20095;-77
2021/05/19 12:32:14;;;;;;;0.82;0.50;;;17.00;1.00;;;;;;4990104;28;20027;-77
2021/05/19 12:34:40;;;;;;;4.70;0.63;;;17.00;1.00;;;;;;4988255;28;20078;-79
2021/05/19 12:37:06;;;;;;;2.38;0.73;;;17.10;1.00;;;;;;4989570;28;20038;-81
2021/05/19 12:39:33;;;;;;;1.60;0.60;;;17.20;1.00;;;;;;4988234;28;20100;-78
2021/05/19 12:42:00;;;;;;;1.85;0.50;;;17.50;1.00;;;;;;4996567;28;20026;-78
2021/05/19 12:44:31;;;;;;;1.80;0.77;;;17.80;1.00;;;;;;5000768;28;20034;-78
2021/05/19 12:47:06;;;;;;;0.93;0.60;;;17.80;1.00;;;;;;4997432;28;20023;-77
2021/05/19 12:49:33;;;;;;;3.75;0.70;;;17.60;1.00;;;;;;4995322;28;20026;-78
2021/05/19 12:52:16;;;;;;;1.17;0.60;;;17.30;1.00;;;;;;4993523;28;20023;-76
2021/05/19 12:54:52;;;;;;;3.65;0.82;;;17.30;1.00;;;;;;4999079;28;20022;-79
2021/05/19 12:57:27;;;;;;;2.13;0.65;;;17.30;1.00;;;;;;5004494;28;20045;-77
2021/05/19 13:00:14;;;;;;;1.35;0.63;;;17.50;1.00;;;;;;4999197;28;20027;-77
2021/05/19 13:02:40;;;;;;;1.63;0.70;;;17.50;1.00;;;;;;5004258;28;20113;-79
2021/05/19 13:05:20;;;;;;;2.55;0.70;;;18.00;1.00;;;;;;4996898;28;20045;-78
2021/05/19 13:07:50;;;;;;;2.47;0.90;;;17.80;1.00;;;;;;5005265;28;20053;-78
2021/05/19 13:10:21;;;;;;;5.03;0.90;;;17.70;1.00;;;;;;5023857;28;20035;-78
2021/05/19 13:13:14;;;;;;;0.50;0.50;;;18.10;1.00;;;;;;5001482;28;20045;-75
2021/05/19 13:15:59;;;;;;;3.08;0.70;;;17.40;1.00;;;;;;4989706;28;20041;-77
2021/05/19 13:18:41;;;;;;;4.25;0.60;;;17.30;1.00;;;;;;4995979;28;20023;-76